Time;durP1;ratioP1;P1;durP2;ratioP2;P2;SDS_P1;SDS_P2;PMS_P1;PMS_P2;Temp;Humidity;BMP_temperature;BMP_pressure;BME280_temperature;BME280_humidity;BME280_pressure;Samples;Min_cycle;Max_cycle;Signal;HPM_P1;HPM_P2
2023/02/09 00:00:18;;;;;;;3.45;1.65;;;;;;;-4.05;62.54;99190.22;4967807;28;20089;-55
2023/02/09 00:02:44;;;;;;;1.65;1.15;;;;;;;-3.84;62.05;99231.19;4967491;28;20055;-55
2023/02/09 00:05:11;;;;;;;4.47;0.75;;;;;;;-3.81;61.73;99230.75;4965568;28;20055;-54
2023/02/09 00:07:38;;;;;;;0.30;0.30;;;;;;;-6.34;62.15;98792.72;4966688;28;20096;-55
2023/02/09 00:10:05;;;;;;;3.47;1.13;;;;;;;-3.77;62.02;99328.59;4967777;28;20081;-56
2023/02/09 00:15:17;;;;;;;7.80;1.95;;;;;;;-3.77;62.29;99231.97;4967649;28;20493;-55
2023/02/09 00:17:43;;;;;;;6.57;2.22;;;;;;;-3.89;62.32;99232.94;4967292;28;20587;-55
2023/02/09 00:20:10;;;;;;;0.30;0.30;;;;;;;-4.43;62.25;99121.94;4967305;28;20102;-55
2023/02/09 00:22:37;;;;;;;0.30;0.30;;;;;;;-4.72;62.55;99074.81;4967095;28;20169;-55
2023/02/09 00:25:03;;;;;;;1.48;0.82;;;;;;;-5.14;62.86;99011.66;4967360;28;20090;-55
2023/02/09 00:27:34;;;;;;;1.05;1.05;;;;;;;-3.71;62.83;99219.38;4964481;28;20101;-55
2023/02/09 00:30:01;;;;;;;0.50;0.30;;;;;;;-3.99;62.90;99197.44;4967568;28;20510;-55
2023/02/09 00:32:27;;;;;;;0.30;0.30;;;;;;;-3.72;62.73;99218.56;4967303;28;20142;-55
2023/02/09 00:34:54;;;;;;;0.30;0.30;;;;;;;-3.69;62.65;99228.13;4965663;28;20055;-55
2023/02/09 00:37:20;;;;;;;0.30;0.30;;;;;;;-3.83;63.34;99197.66;4966951;28;20043;-56
2023/02/09 00:39:47;;;;;;;2.45;2.35;;;;;;;-3.65;63.18;99218.50;4966810;28;20125;-55
2023/02/09 00:42:14;;;;;;;0.28;0.28;;;;;;;-3.67;63.15;99215.19;4966736;28;20077;-55
2023/02/09 00:44:40;;;;;;;1.40;1.27;;;;;;;-3.69;62.81;99211.88;4967200;28;20117;-56
2023/02/09 00:47:08;;;;;;;0.30;0.30;;;;;;;-4.09;62.99;99145.69;4966522;28;20058;-55
2023/02/09 00:49:35;;;;;;;0.30;0.30;;;;;;;-3.87;63.73;99179.41;4966919;28;20047;-56
2023/02/09 00:52:02;;;;;;;0.30;0.30;;;;;;;-3.96;64.02;99161.78;4965322;28;20612;-57
2023/02/09 00:54:29;;;;;;;3.13;2.78;;;;;;;-3.82;64.67;99206.59;4966938;28;20058;-56
2023/02/09 00:56:57;;;;;;;2.55;2.28;;;;;;;-4.23;64.48;99166.66;4966239;28;20054;-56
2023/02/09 00:59:24;;;;;;;0.68;0.68;;;;;;;-4.16;64.49;99191.78;4965643;28;20046;-57
2023/02/09 01:01:51;;;;;;;3.05;2.85;;;;;;;-4.14;65.20;99210.50;4966802;28;20487;-55
2023/02/09 01:04:18;;;;;;;1.00;1.00;;;;;;;-4.43;65.77;99192.25;4965059;28;20051;-55
2023/02/09 01:06:44;;;;;;;0.30;0.30;;;;;;;-4.35;66.18;99221.72;4966061;28;20055;-55
2023/02/09 01:09:11;;;;;;;0.30;0.30;;;;;;;-4.33;66.48;99219.63;4966596;28;20588;-56
2023/02/09 01:11:38;;;;;;;0.30;0.30;;;;;;;-4.38;66.49;99208.66;4966352;28;20528;-56
2023/02/09 01:14:05;;;;;;;0.68;0.68;;;;;;;-4.79;66.56;99150.56;4964779;28;20073;-56
2023/02/09 01:16:31;;;;;;;0.25;0.25;;;;;;;-4.59;66.88;99190.94;4967079;28;20090;-55
2023/02/09 01:19:00;;;;;;;3.83;2.67;;;;;;;-4.73;67.52;99184.81;4966375;28;20058;-56
2023/02/09 01:21:27;;;;;;;1.70;1.60;;;;;;;-4.68;67.69;99200.41;4966935;28;20504;-55
2023/02/09 01:23:54;;;;;;;1.25;1.20;;;;;;;-4.70;67.99;99207.88;4966436;28;20189;-56
2023/02/09 01:26:21;;;;;;;1.38;0.85;;;;;;;-4.71;68.57;99217.88;4965376;28;20149;-56
2023/02/09 01:28:51;;;;;;;0.30;0.30;;;;;;;-4.85;68.79;99205.50;4965809;28;20511;-56
2023/02/09 01:31:25;;;;;;;4.20;2.85;;;;;;;-4.76;68.88;99198.78;4965957;28;20422;-56
2023/02/09 01:33:54;;;;;;;0.30;0.30;;;;;;;-4.67;68.76;99192.06;4964934;28;20162;-55
2023/02/09 01:36:21;;;;;;;0.80;0.80;;;;;;;-4.69;68.36;99188.75;4966438;28;20074;-56
2023/02/09 01:38:48;;;;;;;0.35;0.35;;;;;;;-4.70;68.78;99180.84;4964889;28;20055;-56
2023/02/09 01:41:15;;;;;;;5.07;1.73;;;;;;;-4.74;68.72;99190.44;4965805;28;20137;-55
2023/02/09 01:44:03;;;;;;;6.70;0.95;;;;;;;-4.80;68.97;99178.66;4965623;28;20502;-55
2023/02/09 01:46:35;;;;;;;2.60;1.42;;;;;;;-5.20;69.31;99146.75;4966184;28;20500;-55
2023/02/09 01:49:16;;;;;;;5.05;1.45;;;;;;;-5.04;69.87;99182.16;4965181;28;20442;-55
2023/02/09 01:52:03;;;;;;;1.45;0.65;;;;;;;-5.19;70.17;99181.66;4958097;28;20580;-56
2023/02/09 01:54:42;;;;;;;4.32;1.70;;;;;;;-5.34;70.59;99183.81;4965618;28;20137;-56
2023/02/09 01:57:15;;;;;;;1.13;1.02;;;;;;;-5.40;70.82;99183.84;4965716;28;20118;-56
2023/02/09 01:59:45;;;;;;;1.83;1.70;;;;;;;-5.52;71.79;99193.66;4965620;28;20336;-56
2023/02/09 02:02:13;;;;;;;0.30;0.30;;;;;;;-5.52;71.78;99181.00;4963802;28;20502;-57
2023/02/09 02:04:42;;;;;;;0.50;0.50;;;;;;;-5.55;71.52;99173.34;4965871;28;20465;-56
2023/02/09 02:07:15;;;;;;;0.45;0.45;;;;;;;-5.61;72.36;99176.88;4964274;28;20063;-56
2023/02/09 02:09:42;;;;;;;0.75;0.75;;;;;;;-5.63;72.43;99179.00;4965324;28;20050;-56
2023/02/09 02:12:09;;;;;;;1.95;0.90;;;;;;;-6.48;72.69;99119.19;4964550;28;20082;-56
2023/02/09 02:14:38;;;;;;;1.10;0.95;;;;;;;-5.71;72.77;99176.53;4965167;28;20086;-56
2023/02/09 02:17:05;;;;;;;1.48;1.33;;;;;;;-5.74;72.67;99170.75;4953547;28;20050;-56
2023/02/09 02:20:03;;;;;;;0.95;0.95;;;;;;;-5.78;72.76;99191.91;4963951;28;20633;-55
2023/02/09 02:23:02;;;;;;;1.20;1.17;;;;;;;-5.72;73.10;99174.88;4963860;28;20120;-54
2023/02/09 02:25:35;;;;;;;1.42;1.38;;;;;;;-5.77;73.04;99171.97;4965400;28;20108;-56
2023/02/09 02:28:20;;;;;;;;;;;;;;;-5.69;73.57;99169.03;4964207;28;20137;-54
2023/02/09 02:31:05;;;;;;;0.50;0.50;;;;;;;-5.84;73.58;99168.53;4965130;28;19933;-55
2023/02/09 02:33:37;;;;;;;1.20;1.20;;;;;;;-5.79;73.67;99179.47;4965060;28;20059;-55
2023/02/09 02:36:04;;;;;;;1.42;1.38;;;;;;;-5.78;73.98;99169.50;4963940;28;20058;-55
2023/02/09 02:38:53;;;;;;;1.08;1.08;;;;;;;-5.80;74.60;99167.00;4962760;28;20055;-55
2023/02/09 02:44:34;;;;;;;8.98;3.25;;;;;;;-6.39;73.58;99069.38;4963754;28;20078;-55
2023/02/09 02:47:06;;;;;;;0.50;0.50;;;;;;;-5.85;73.87;99166.88;4964283;28;20584;-55
2023/02/09 02:49:41;;;;;;;0.40;0.40;;;;;;;-5.90;74.17;99153.19;4965380;28;20065;-57
2023/02/09 02:52:09;;;;;;;3.35;1.40;;;;;;;-5.84;74.29;99149.63;4967526;28;20047;-56
2023/02/09 02:54:40;;;;;;;0.70;0.70;;;;;;;-5.80;74.56;99150.81;4967910;28;20477;-55
2023/02/09 02:57:17;;;;;;;0.40;0.40;;;;;;;-5.84;74.13;99149.63;4967677;28;20097;-54
2023/02/09 02:59:55;;;;;;;0.70;0.70;;;;;;;-5.86;74.06;99172.50;4968475;28;20112;-56
2023/02/09 03:02:27;;;;;;;0.38;0.38;;;;;;;-6.32;74.33;99108.75;4969115;28;20054;-56
2023/02/09 03:04:57;;;;;;;2.35;1.27;;;;;;;-5.94;74.80;99160.06;4967796;28;20510;-56
2023/02/09 03:07:24;;;;;;;1.15;1.15;;;;;;;-5.89;74.96;99157.53;4968296;28;20059;-56
2023/02/09 03:09:53;;;;;;;5.15;2.42;;;;;;;-5.88;74.63;99164.59;4968056;28;20101;-56
2023/02/09 03:12:32;;;;;;;0.52;0.52;;;;;;;-5.89;74.67;99162.94;4969092;28;20093;-58
2023/02/09 03:15:07;;;;;;;0.52;0.50;;;;;;;-5.97;75.06;99163.19;4968955;28;20046;-56
2023/02/09 03:17:51;;;;;;;4.20;1.55;;;;;;;-5.81;74.42;99157.28;4968304;28;20097;-56
2023/02/09 03:20:41;;;;;;;0.77;0.77;;;;;;;-5.82;74.53;99144.88;4967876;28;20059;-56
2023/02/09 03:23:19;;;;;;;0.98;0.65;;;;;;;-6.28;74.58;99079.50;4968687;28;20059;-56
2023/02/09 03:25:51;;;;;;;3.25;3.13;;;;;;;-5.90;74.77;99145.09;4967919;28;20054;-55
2023/02/09 03:28:24;;;;;;;2.28;2.08;;;;;;;-6.24;74.83;99102.28;4955023;28;20055;-56
2023/02/09 03:30:52;;;;;;;0.80;0.80;;;;;;;-5.97;74.61;99121.91;4967973;28;20054;-56
2023/02/09 03:33:26;;;;;;;3.05;2.22;;;;;;;-5.76;74.35;99135.88;4968318;28;20494;-56
2023/02/09 03:35:55;;;;;;;1.98;1.45;;;;;;;-5.74;74.06;99139.19;4964350;28;20402;-56
2023/02/09 03:38:22;;;;;;;0.40;0.40;;;;;;;-5.71;74.35;99130.66;4964163;28;20067;-56
2023/02/09 03:40:49;;;;;;;0.75;0.75;;;;;;;-5.66;74.05;99130.84;4968011;28;20137;-56
2023/02/09 03:43:16;;;;;;;0.95;0.95;;;;;;;-5.62;73.98;99137.44;4967897;28;20047;-56
2023/02/09 03:45:42;;;;;;;14.52;4.20;;;;;;;-5.56;73.55;99136.59;4967558;28;20062;-57
2023/02/09 03:48:09;;;;;;;1.02;1.02;;;;;;;-5.66;73.53;99136.25;4966803;28;20187;-56
2023/02/09 03:50:36;;;;;;;4.53;0.95;;;;;;;-5.79;73.85;99133.59;4966113;28;20137;-57
2023/02/09 03:53:07;;;;;;;0.40;0.40;;;;;;;-5.75;74.11;99199.59;4955426;28;20061;-56
2023/02/09 03:55:34;;;;;;;11.50;2.53;;;;;;;-5.79;74.25;99119.28;4966342;28;20050;-56
2023/02/09 03:58:01;;;;;;;5.43;3.30;;;;;;;-5.95;74.36;99088.28;4967576;28;20574;-57
2023/02/09 04:00:27;;;;;;;1.60;1.55;;;;;;;-6.53;74.34;99003.09;4967508;28;20417;-56
2023/02/09 04:02:55;;;;;;;5.57;1.67;;;;;;;-5.86;74.21;99119.34;4967642;28;20054;-57
2023/02/09 04:05:21;;;;;;;0.30;0.30;;;;;;;-5.79;74.30;99136.31;4966592;28;20046;-57
2023/02/09 04:07:48;;;;;;;0.60;0.60;;;;;;;-6.15;74.29;99074.06;4967689;28;20066;-57
2023/02/09 04:10:15;;;;;;;2.00;1.80;;;;;;;-5.78;74.32;99121.75;4966937;28;20093;-56
2023/02/09 04:12:42;;;;;;;4.15;2.95;;;;;;;-5.76;74.21;99119.69;4968072;28;20051;-56
2023/02/09 04:15:09;;;;;;;4.28;3.47;;;;;;;-5.81;73.58;99116.81;4966960;28;20054;-57
2023/02/09 04:17:35;;;;;;;4.63;4.32;;;;;;;-6.33;74.11;99063.97;4967723;28;20075;-56
2023/02/09 04:20:02;;;;;;;1.52;1.52;;;;;;;-5.84;74.14;99117.25;4967490;28;20055;-56
2023/02/09 04:22:29;;;;;;;1.00;1.00;;;;;;;-5.86;74.57;99123.94;4967521;28;20047;-56
2023/02/09 04:24:55;;;;;;;0.65;0.65;;;;;;;-6.65;74.55;99015.56;4966903;28;20114;-57
2023/02/09 04:27:22;;;;;;;6.50;2.75;;;;;;;-6.27;74.00;99051.50;4967794;28;20353;-56
2023/02/09 04:29:48;;;;;;;3.28;3.13;;;;;;;-5.96;74.53;99105.50;4967631;28;20063;-57
2023/02/09 04:32:15;;;;;;;2.22;1.80;;;;;;;-5.97;74.38;99111.13;4966084;28;20497;-56
2023/02/09 04:34:42;;;;;;;8.50;4.00;;;;;;;-6.04;74.43;99132.72;4965770;28;20088;-58
2023/02/09 04:37:08;;;;;;;0.50;0.50;;;;;;;-6.12;74.70;99106.00;4966125;28;20177;-56
2023/02/09 04:39:35;;;;;;;3.67;3.42;;;;;;;-6.17;74.27;99100.41;4966241;28;20055;-56
2023/02/09 04:42:01;;;;;;;7.13;6.57;;;;;;;-6.36;75.21;99085.13;4965542;28;20086;-56
2023/02/09 04:44:28;;;;;;;2.10;1.95;;;;;;;-6.33;75.28;99101.72;4966018;28;20125;-56
2023/02/09 04:46:55;;;;;;;1.08;1.05;;;;;;;-6.64;76.23;99076.50;4962345;28;20078;-55
2023/02/09 04:49:21;;;;;;;2.30;2.15;;;;;;;-6.43;76.04;99100.47;4965884;28;20086;-56
2023/02/09 04:51:48;;;;;;;1.70;1.60;;;;;;;-6.45;76.52;99097.19;4964292;28;20129;-54
2023/02/09 04:54:15;;;;;;;4.47;2.63;;;;;;;-6.47;76.32;99104.66;4965944;28;20438;-55
2023/02/09 04:56:41;;;;;;;2.08;1.88;;;;;;;-6.57;76.64;99099.69;4965703;28;20078;-54
2023/02/09 05:01:54;;;;;;;4.22;2.15;;;;;;;-7.05;77.16;99027.50;4966085;28;20555;-54
2023/02/09 05:04:20;;;;;;;8.05;3.47;;;;;;;-6.49;76.70;99106.72;4963650;28;20117;-55
2023/02/09 05:06:47;;;;;;;10.27;2.58;;;;;;;-10.58;76.79;98451.34;4964419;28;20804;-54
2023/02/09 05:09:14;;;;;;;0.30;0.30;;;;;;;-6.67;76.81;99109.28;4965619;28;20706;-55
2023/02/09 05:11:40;;;;;;;10.98;1.50;;;;;;;-6.60;77.14;99120.84;4965248;28;20055;-54
2023/02/09 05:14:07;;;;;;;7.47;2.38;;;;;;;-6.68;77.26;99112.97;4963423;28;20522;-54
2023/02/09 05:16:33;;;;;;;4.80;3.65;;;;;;;-6.70;76.97;99120.47;4964435;28;20086;-54
2023/02/09 05:19:00;;;;;;;3.83;2.40;;;;;;;-6.73;77.52;99119.00;4964733;28;20066;-54
2023/02/09 05:21:27;;;;;;;3.97;3.67;;;;;;;-6.80;77.71;99103.91;4966200;28;20110;-55
2023/02/09 05:23:53;;;;;;;7.97;3.70;;;;;;;-6.74;77.68;99135.38;4965013;28;20101;-57
2023/02/09 05:26:20;;;;;;;1.35;1.25;;;;;;;-7.50;77.07;98977.25;4965751;28;20095;-53
2023/02/09 05:28:46;;;;;;;0.40;0.40;;;;;;;-6.67;77.36;99111.97;4966249;28;20502;-57
2023/02/09 05:31:13;;;;;;;0.77;0.77;;;;;;;-7.16;77.47;99044.28;4965951;28;20051;-57
2023/02/09 05:33:40;;;;;;;10.52;3.53;;;;;;;-6.68;77.61;99118.38;4965608;28;20051;-54
2023/02/09 05:36:08;;;;;;;1.77;1.52;;;;;;;-6.86;77.53;99105.56;4966401;28;20127;-54
2023/02/09 05:38:35;;;;;;;4.03;3.83;;;;;;;-6.67;77.51;99109.28;4966162;28;20384;-55
2023/02/09 05:41:07;;;;;;;2.92;1.30;;;;;;;-6.72;77.94;99090.22;4966446;28;20089;-54
2023/02/09 05:43:35;;;;;;;6.15;2.60;;;;;;;-6.48;77.18;99108.41;4965368;28;20051;-54
2023/02/09 05:46:02;;;;;;;2.63;2.45;;;;;;;-6.40;76.85;99110.84;4966488;28;20449;-54
2023/02/09 05:48:31;;;;;;;4.53;1.85;;;;;;;-6.44;76.96;99123.09;4964883;28;20078;-54
2023/02/09 05:50:58;;;;;;;6.75;2.05;;;;;;;-6.43;76.99;99125.56;4965875;28;20082;-54
2023/02/09 05:53:24;;;;;;;7.43;2.20;;;;;;;-6.47;77.01;99115.44;4964045;28;20485;-54
2023/02/09 05:55:51;;;;;;;1.85;1.75;;;;;;;-9.84;75.67;98558.16;4965270;28;20054;-54
2023/02/09 05:58:18;;;;;;;1.10;1.10;;;;;;;-6.92;76.41;99040.91;4965602;28;20058;-55
2023/02/09 06:00:44;;;;;;;1.95;1.85;;;;;;;-6.18;76.40;99149.16;4965074;28;20123;-54
2023/02/09 06:03:11;;;;;;;1.17;1.17;;;;;;;-7.03;75.68;98963.47;4965400;28;20050;-55
2023/02/09 06:05:38;;;;;;;5.53;2.05;;;;;;;-5.85;75.08;99118.31;4965457;28;20054;-57
2023/02/09 06:08:05;;;;;;;0.63;0.63;;;;;;;-5.79;74.85;99125.50;4965140;28;20051;-55
2023/02/09 06:10:31;;;;;;;1.15;0.52;;;;;;;-5.70;74.52;99129.59;4965544;28;20130;-54
2023/02/09 06:12:58;;;;;;;1.67;1.58;;;;;;;-5.66;74.10;99121.91;4963958;28;20077;-55
2023/02/09 06:15:24;;;;;;;0.52;0.52;;;;;;;-5.46;73.74;99120.75;4965020;28;20074;-55
2023/02/09 06:17:51;;;;;;;15.57;3.88;;;;;;;-5.33;73.18;99109.88;4965347;28;20158;-55
2023/02/09 06:20:18;;;;;;;1.95;1.73;;;;;;;-5.26;72.87;99129.53;4965509;28;20054;-55
2023/02/09 06:22:44;;;;;;;1.05;1.05;;;;;;;-5.63;72.77;99027.03;4965112;28;20117;-55
2023/02/09 06:25:11;;;;;;;0.50;0.50;;;;;;;-4.97;72.31;99109.16;4964195;28;20597;-56
2023/02/09 06:27:38;;;;;;;0.68;0.52;;;;;;;-4.83;72.09;99116.09;4962011;28;20653;-55
2023/02/09 06:30:05;;;;;;;1.77;1.65;;;;;;;-4.63;70.49;99120.28;4965680;28;20059;-55
2023/02/09 06:32:32;;;;;;;2.47;2.30;;;;;;;-4.76;70.34;99093.34;4964948;28;20137;-55
2023/02/09 06:34:58;;;;;;;0.40;0.40;;;;;;;-4.62;70.90;99091.38;4963461;28;20050;-55
2023/02/09 06:37:25;;;;;;;0.40;0.40;;;;;;;-4.54;69.81;99074.03;4965004;28;20385;-57
2023/02/09 06:39:51;;;;;;;1.67;1.63;;;;;;;-4.18;69.57;99095.66;4965520;28;20070;-55
2023/02/09 06:42:18;;;;;;;7.90;3.10;;;;;;;-4.12;68.66;99075.81;4964697;28;20050;-54
2023/02/09 06:44:45;;;;;;;4.57;3.10;;;;;;;-4.57;68.08;99012.28;4964374;28;20129;-56
2023/02/09 06:47:11;;;;;;;2.42;2.20;;;;;;;-4.57;67.81;98996.06;4963379;28;20058;-57
2023/02/09 06:49:38;;;;;;;0.40;0.40;;;;;;;-4.63;68.38;98986.16;4984185;28;20058;-62
2023/02/09 06:52:06;;;;;;;0.40;0.40;;;;;;;-3.82;68.13;99076.66;4971694;28;20620;-60
2023/02/09 06:54:36;;;;;;;0.52;0.52;;;;;;;-3.72;67.33;99082.38;4963339;28;20149;-57
2023/02/09 06:57:02;;;;;;;2.15;2.05;;;;;;;-3.24;67.37;99099.38;4964473;28;20469;-59
2023/02/09 06:59:29;;;;;;;1.80;0.80;;;;;;;-3.44;66.60;99004.03;4963742;28;20047;-57
2023/02/09 07:01:55;;;;;;;0.40;0.40;;;;;;;-2.60;65.64;99110.19;4955890;28;20411;-56
2023/02/09 07:04:22;;;;;;;3.47;3.13;;;;;;;-3.28;64.77;98952.72;4961276;28;20466;-60
2023/02/09 07:06:49;;;;;;;0.73;0.73;;;;;;;-2.80;62.42;99022.94;4975159;28;20066;-60
2023/02/09 07:09:16;;;;;;;0.38;0.38;;;;;;;-2.01;63.03;99176.94;4965330;28;20046;-57
2023/02/09 07:11:42;;;;;;;3.00;2.85;;;;;;;-1.79;62.15;99102.72;4958381;28;20051;-57
2023/02/09 07:14:09;;;;;;;1.80;1.70;;;;;;;-1.59;60.00;99097.72;4963800;28;20076;-56
2023/02/09 07:16:36;;;;;;;1.42;0.55;;;;;;;-1.58;57.90;99110.22;4968028;28;20050;-58
2023/02/09 07:19:02;;;;;;;0.60;0.60;;;;;;;-1.71;56.67;99015.41;4963728;28;20122;-58
2023/02/09 07:21:29;;;;;;;0.30;0.30;;;;;;;-0.99;56.08;99089.00;4962183;28;20090;-56
2023/02/09 07:23:56;;;;;;;0.45;0.40;;;;;;;-0.73;55.10;99116.41;4963331;28;20074;-56
2023/02/09 07:26:22;;;;;;;0.30;0.30;;;;;;;-0.66;54.27;99118.94;4961225;28;20141;-58
2023/02/09 07:28:49;;;;;;;0.30;0.30;;;;;;;-0.68;54.38;99104.78;4959168;28;20049;-58
2023/02/09 07:31:16;;;;;;;2.28;1.15;;;;;;;-0.39;53.57;99119.91;4962959;28;20047;-56
2023/02/09 07:33:43;;;;;;;0.30;0.30;;;;;;;-0.46;53.60;99113.81;4962361;28;20054;-56
2023/02/09 07:36:11;;;;;;;0.30;0.30;;;;;;;-0.19;53.86;99114.78;4961298;28;20078;-58
2023/02/09 07:38:39;;;;;;;0.30;0.30;;;;;;;-0.47;51.69;99030.50;4965507;28;20058;-59
2023/02/09 07:41:11;;;;;;;0.93;0.93;;;;;;;-0.50;52.05;99041.88;4975413;28;20055;-59
2023/02/09 07:43:38;;;;;;;0.30;0.30;;;;;;;0.11;52.17;99108.91;4963079;28;20474;-57
2023/02/09 07:46:06;;;;;;;0.30;0.30;;;;;;;-0.74;51.45;99015.94;4979050;28;20054;-58
2023/02/09 07:48:34;;;;;;;0.30;0.30;;;;;;;-0.58;51.77;98990.59;4972710;28;20062;-57
2023/02/09 07:51:01;;;;;;;0.40;0.40;;;;;;;0.32;51.62;99100.72;4977397;28;20428;-55
2023/02/09 07:53:28;;;;;;;1.50;0.93;;;;;;;0.11;51.30;99104.28;4964725;28;20047;-57
2023/02/09 07:55:55;;;;;;;0.30;0.30;;;;;;;-0.06;51.29;99068.94;4973263;28;20108;-57
2023/02/09 07:58:22;;;;;;;0.65;0.57;;;;;;;0.26;51.37;99104.47;4967368;28;20055;-54
2023/02/09 08:00:50;;;;;;;4.28;3.97;;;;;;;0.13;51.29;99066.69;4967290;28;20085;-57
2023/02/09 08:03:19;;;;;;;4.93;0.88;;;;;;;0.20;50.47;99124.56;4956743;28;20450;-58
2023/02/09 08:06:04;;;;;;;0.30;0.30;;;;;;;0.45;50.72;99111.25;4967109;28;20063;-56
2023/02/09 08:08:31;;;;;;;0.30;0.30;;;;;;;0.18;50.12;99027.78;4980584;28;20188;-56
2023/02/09 08:11:00;;;;;;;0.40;0.40;;;;;;;1.04;49.29;99104.78;4976786;28;20043;-57
2023/02/09 08:13:32;;;;;;;0.40;0.40;;;;;;;1.28;48.64;99100.63;4971455;28;20108;-55
2023/02/09 08:16:03;;;;;;;0.40;0.40;;;;;;;1.25;49.48;99095.69;4984967;28;20050;-57
2023/02/09 08:18:49;;;;;;;1.20;1.15;;;;;;;0.82;48.57;99065.81;4966538;28;20057;-59
2023/02/09 08:21:17;;;;;;;1.00;0.70;;;;;;;0.93;49.00;99081.19;4979103;28;20050;-57
2023/02/09 08:23:46;;;;;;;19.75;3.08;;;;;;;0.97;49.20;99104.19;4965141;28;20493;-56
2023/02/09 08:26:14;;;;;;;0.60;0.60;;;;;;;0.73;48.64;99051.00;4971548;28;20597;-59
2023/02/09 08:28:44;;;;;;;1.73;0.98;;;;;;;1.14;47.47;99085.78;4972723;28;20485;-57
2023/02/09 08:31:13;;;;;;;1.42;1.35;;;;;;;0.72;48.22;99024.84;4968818;28;20046;-55
2023/02/09 08:33:41;;;;;;;2.45;2.35;;;;;;;0.50;47.51;98977.72;4966407;28;20082;-57
2023/02/09 08:36:10;;;;;;;7.97;1.52;;;;;;;1.32;47.44;99090.84;4961350;28;20059;-55
2023/02/09 08:38:38;;;;;;;1.95;1.25;;;;;;;0.92;46.99;99021.44;4969133;28;20062;-57
2023/02/09 08:41:06;;;;;;;1.02;1.02;;;;;;;1.56;46.15;99078.44;4983529;28;20068;-56
2023/02/09 08:43:33;;;;;;;2.08;1.15;;;;;;;1.77;45.16;99086.78;4965947;28;20047;-56
2023/02/09 08:46:11;;;;;;;3.03;1.20;;;;;;;1.37;45.03;99077.25;4978912;28;20509;-55
2023/02/09 08:48:41;;;;;;;0.32;0.32;;;;;;;1.58;45.54;99087.22;4976561;28;20050;-56
2023/02/09 08:51:10;;;;;;;1.33;0.65;;;;;;;1.69;44.60;99095.47;4980972;28;20058;-56
2023/02/09 08:53:36;;;;;;;0.50;0.50;;;;;;;0.50;45.08;98863.22;4965792;28;20046;-57
2023/02/09 08:56:04;;;;;;;0.40;0.40;;;;;;;1.84;44.62;99093.66;4963898;28;20145;-56
2023/02/09 08:58:32;;;;;;;0.40;0.40;;;;;;;2.07;44.80;99081.50;4964788;28;20506;-56
2023/02/09 09:00:59;;;;;;;3.83;3.47;;;;;;;1.91;43.22;99038.78;4972902;28;20423;-57
2023/02/09 09:03:30;;;;;;;0.40;0.40;;;;;;;2.29;42.86;99085.69;4964802;28;20049;-55
2023/02/09 09:05:57;;;;;;;0.40;0.40;;;;;;;2.36;42.54;99075.34;4981486;28;20046;-54
2023/02/09 09:08:24;;;;;;;2.72;1.35;;;;;;;2.00;42.05;99057.13;4971252;28;20085;-59
2023/02/09 09:10:50;;;;;;;2.60;1.20;;;;;;;2.11;42.27;99074.41;4976431;28;20053;-57
2023/02/09 09:13:19;;;;;;;0.50;0.50;;;;;;;2.04;42.37;99071.91;4973885;28;20517;-55
2023/02/09 09:15:45;;;;;;;1.45;0.70;;;;;;;1.60;42.14;99020.59;4973287;28;20888;-55
2023/02/09 09:18:12;;;;;;;3.53;2.28;;;;;;;1.21;42.67;99083.66;4960629;28;20058;-57
2023/02/09 09:20:40;;;;;;;6.03;3.17;;;;;;;0.74;43.54;98995.41;4973669;28;20109;-55
2023/02/09 09:23:07;;;;;;;1.25;1.15;;;;;;;0.71;43.03;98930.44;4971585;28;20144;-57
2023/02/09 09:25:34;;;;;;;0.35;0.35;;;;;;;1.28;42.58;98985.97;4985522;28;20054;-57
2023/02/09 09:28:01;;;;;;;2.67;1.80;;;;;;;1.77;42.14;99064.94;4978354;28;20050;-59
2023/02/09 09:30:27;;;;;;;1.10;0.90;;;;;;;1.48;42.27;99035.28;4985210;28;20485;-55
2023/02/09 09:32:54;;;;;;;1.00;0.70;;;;;;;1.73;41.46;99072.00;4963996;28;20054;-55
2023/02/09 09:35:21;;;;;;;0.40;0.40;;;;;;;1.79;41.76;99046.38;4965289;28;20150;-54
2023/02/09 09:37:47;;;;;;;0.75;0.68;;;;;;;2.16;41.27;99058.03;4965177;28;20051;-59
2023/02/09 09:40:22;;;;;;;0.40;0.40;;;;;;;2.00;42.28;99062.59;4965147;28;20062;-56
2023/02/09 09:42:53;;;;;;;2.58;1.50;;;;;;;2.15;40.72;99018.13;4971809;28;20391;-56
2023/02/09 09:45:23;;;;;;;0.85;0.82;;;;;;;2.41;40.24;99050.75;4982788;28;20129;-55
2023/02/09 09:47:50;;;;;;;0.40;0.40;;;;;;;2.31;40.92;99047.16;4965533;28;20055;-57
2023/02/09 09:50:20;;;;;;;0.85;0.70;;;;;;;2.59;40.51;99085.00;4960860;28;20090;-54
2023/02/09 09:52:52;;;;;;;0.45;0.45;;;;;;;2.36;39.71;98987.00;4964192;28;20528;-56
2023/02/09 09:55:30;;;;;;;1.48;1.45;;;;;;;2.89;40.35;99030.31;4960171;28;20046;-54
2023/02/09 09:58:00;;;;;;;1.30;0.85;;;;;;;2.77;39.58;99032.47;4964983;28;20122;-55
2023/02/09 10:00:34;;;;;;;1.58;1.00;;;;;;;2.67;39.67;99032.50;4964776;28;20042;-53
2023/02/09 10:03:02;;;;;;;0.75;0.75;;;;;;;2.32;39.21;99032.38;4965385;28;20062;-53
2023/02/09 10:05:36;;;;;;;0.77;0.77;;;;;;;2.46;39.48;99006.19;4964557;28;20105;-55
2023/02/09 10:08:19;;;;;;;1.88;1.65;;;;;;;2.74;39.06;99022.09;4965225;28;20070;-56
2023/02/09 10:10:46;;;;;;;0.60;0.60;;;;;;;2.77;39.23;99014.16;4964612;28;20066;-57
2023/02/09 10:13:21;;;;;;;0.93;0.88;;;;;;;2.84;38.60;99016.63;4965078;28;20057;-54
2023/02/09 10:15:50;;;;;;;1.38;1.27;;;;;;;2.56;38.74;99014.41;4963449;28;20062;-55
2023/02/09 10:18:23;;;;;;;1.83;1.08;;;;;;;1.70;39.51;98942.25;4965166;28;20095;-55
2023/02/09 10:20:51;;;;;;;;;;;;;;;1.66;39.81;99003.16;4965297;28;20047;-57
2023/02/09 10:23:35;;;;;;;3.20;1.60;;;;;;;1.66;39.65;98997.69;4964990;28;20401;-53
2023/02/09 10:26:07;;;;;;;0.90;0.90;;;;;;;2.24;39.53;98995.47;4964229;28;20101;-55
2023/02/09 10:28:53;;;;;;;1.27;1.17;;;;;;;2.20;39.92;98998.97;4964636;28;20093;-54
2023/02/09 10:31:27;;;;;;;1.20;1.13;;;;;;;2.08;39.08;98976.53;4963160;28;20493;-56
2023/02/09 10:33:56;;;;;;;0.40;0.40;;;;;;;2.24;39.71;98994.63;4965315;28;20341;-55
2023/02/09 10:36:30;;;;;;;0.50;0.50;;;;;;;2.15;39.86;98996.25;4964650;28;20050;-55
2023/02/09 10:39:15;;;;;;;0.73;0.50;;;;;;;2.57;39.12;98988.69;4965114;28;20061;-55
2023/02/09 10:41:45;;;;;;;2.85;1.40;;;;;;;2.86;38.70;98992.56;4965116;28;20106;-53
2023/02/09 10:44:29;;;;;;;0.73;0.55;;;;;;;2.79;39.10;99005.69;4965263;28;20170;-53
2023/02/09 10:47:17;;;;;;;6.55;3.00;;;;;;;1.73;39.54;98976.38;4964484;28;20094;-52
2023/02/09 10:50:04;;;;;;;3.78;1.17;;;;;;;2.04;40.87;98967.25;4964732;28;20078;-55
2023/02/09 10:52:34;;;;;;;1.13;0.60;;;;;;;2.33;40.01;98982.06;4964090;28;20082;-55
2023/02/09 10:55:23;;;;;;;1.13;0.73;;;;;;;2.15;39.47;98979.84;4965045;28;20113;-56
2023/02/09 10:57:50;;;;;;;12.70;4.80;;;;;;;2.39;39.58;98990.03;4963646;28;20046;-57
2023/02/09 11:00:17;;;;;;;0.88;0.88;;;;;;;2.55;39.66;98985.41;4962455;28;20614;-56
2023/02/09 11:02:50;;;;;;;3.45;1.48;;;;;;;2.24;38.55;98989.16;4964229;28;20133;-57
2023/02/09 11:05:20;;;;;;;1.60;1.42;;;;;;;2.20;39.72;98988.88;4963050;28;20054;-56
2023/02/09 11:08:13;;;;;;;0.50;0.50;;;;;;;1.86;40.18;98984.94;4963509;28;20062;-57
2023/02/09 11:10:47;;;;;;;4.57;1.47;;;;;;;2.45;39.57;98980.72;4966877;28;20093;-54
2023/02/09 11:13:23;;;;;;;2.85;1.50;;;;;;;2.81;39.31;98981.59;4967337;28;20054;-53
2023/02/09 11:16:03;;;;;;;2.15;1.58;;;;;;;2.93;38.98;98977.50;4967987;28;20082;-54
2023/02/09 11:18:33;;;;;;;1.90;0.88;;;;;;;2.81;38.29;98967.94;4968235;28;20057;-57
2023/02/09 11:21:04;;;;;;;3.00;1.90;;;;;;;2.78;38.13;98979.41;4968116;28;20051;-53
2023/02/09 11:23:57;;;;;;;1.60;0.88;;;;;;;2.59;38.83;98979.09;4968869;28;20051;-58
2023/02/09 11:26:50;;;;;;;7.68;3.75;;;;;;;2.87;39.05;98972.31;4966651;28;20051;-53
2023/02/09 11:29:16;;;;;;;4.72;2.35;;;;;;;3.02;39.05;98969.53;4968265;28;20082;-54
2023/02/09 11:32:02;;;;;;;2.75;1.30;;;;;;;2.80;38.11;98977.22;4966563;28;20081;-53
2023/02/09 11:34:51;;;;;;;4.28;1.25;;;;;;;2.00;38.43;98960.66;4967870;28;20043;-56
2023/02/09 11:37:34;;;;;;;0.40;0.40;;;;;;;2.39;38.73;98961.84;4961078;28;20578;-55
2023/02/09 11:40:22;;;;;;;0.40;0.40;;;;;;;2.68;37.67;98974.75;4967048;28;20093;-56
2023/02/09 11:42:58;;;;;;;10.52;4.22;;;;;;;2.87;37.61;98950.41;4967394;28;20106;-53
2023/02/09 11:45:47;;;;;;;4.25;1.98;;;;;;;2.66;37.23;98962.44;4968005;28;20054;-56
2023/02/09 11:48:20;;;;;;;0.50;0.50;;;;;;;2.78;37.08;98965.75;4966506;28;20089;-56
2023/02/09 11:50:59;;;;;;;;;;;;;;;3.05;37.66;98947.13;4968291;28;20059;-56
2023/02/09 11:53:42;;;;;;;5.07;0.75;;;;;;;3.03;37.03;98955.59;4966214;28;19930;-56
2023/02/09 11:56:12;;;;;;;2.92;1.30;;;;;;;2.93;37.49;98932.88;4967506;28;20058;-56
2023/02/09 11:59:05;;;;;;;3.65;1.33;;;;;;;2.85;38.71;98941.63;4967707;28;20058;-56